Time;durP1;ratioP1;P1;durP2;ratioP2;P2;SDS_P1;SDS_P2;PMS_P1;PMS_P2;Temp;Humidity;BMP_temperature;BMP_pressure;BME280_temperature;BME280_humidity;BME280_pressure;Samples;Min_cycle;Max_cycle;Signal;HPM_P1;HPM_P2
2022/05/20 00:00:32;;;;;;;;;2.00;0.00;;;;;23.59;39.35;101597.47;5003363;28;45360;-84
2022/05/20 00:02:58;;;;;;;;;0.67;0.67;;;;;23.79;39.07;101633.91;5033433;28;45703;-84
2022/05/20 00:05:24;;;;;;;;;0.33;0.33;;;;;23.71;39.11;101613.75;5005491;28;45499;-84
2022/05/20 00:07:50;;;;;;;;;0.00;0.00;;;;;24.16;38.63;101689.78;5036479;28;45442;-84
2022/05/20 00:10:17;;;;;;;;;1.00;1.00;;;;;24.15;38.57;101675.28;5004942;28;45441;-84
2022/05/20 00:12:43;;;;;;;;;2.33;0.00;;;;;24.14;38.93;101679.03;5015270;28;45841;-84
2022/05/20 00:15:11;;;;;;;;;0.00;0.00;;;;;23.52;38.58;101584.50;5007636;28;45505;-84
2022/05/20 00:17:36;;;;;;;;;1.00;1.00;;;;;23.76;38.14;101616.97;5028046;28;45524;-84
2022/05/20 00:20:06;;;;;;;;;0.00;0.00;;;;;23.61;38.37;101602.78;5027643;28;45355;-84
2022/05/20 00:22:32;;;;;;;;;1.00;1.00;;;;;23.88;37.66;101639.53;5036776;28;45351;-84
2022/05/20 00:27:41;;;;;;;;;2.67;1.00;;;;;23.90;36.87;101648.44;5019439;28;45852;-84
2022/05/20 00:30:08;;;;;;;;;0.00;0.00;;;;;23.97;38.26;101674.16;5016415;28;45497;-84
2022/05/20 00:32:33;;;;;;;;;1.00;0.67;;;;;23.42;37.82;101581.72;4999230;28;45284;-84
2022/05/20 00:34:59;;;;;;;;;1.00;0.00;;;;;23.65;36.96;101620.59;5026953;28;45469;-84
2022/05/20 00:37:24;;;;;;;;;0.67;0.00;;;;;23.57;36.78;101614.91;5018651;28;46393;-84
2022/05/20 00:39:50;;;;;;;;;2.00;0.00;;;;;23.56;36.51;101614.06;5018478;28;46010;-84
2022/05/20 00:42:17;;;;;;;;;1.00;1.00;;;;;23.92;36.70;101671.81;5036758;28;45481;-84
2022/05/20 00:44:43;;;;;;;;;0.00;0.00;;;;;23.47;36.72;101592.22;5022671;28;45660;-84
2022/05/20 00:47:12;;;;;;;;;0.00;0.00;;;;;23.60;36.25;101615.53;5038475;28;47200;-84
2022/05/20 00:49:40;;;;;;;;;0.67;0.00;;;;;23.89;36.73;101666.66;5039957;28;45937;-84
2022/05/20 00:52:09;;;;;;;;;0.00;0.00;;;;;23.87;36.58;101659.63;5039278;28;45395;-84
2022/05/20 00:54:43;;;;;;;;;0.00;0.00;;;;;23.49;36.64;101593.81;5006615;28;45337;-84
2022/05/20 00:57:18;;;;;;;;;0.00;0.00;;;;;23.80;36.64;101651.09;5037133;28;46161;-84
2022/05/20 00:59:49;;;;;;;;;0.00;0.00;;;;;23.70;38.02;101636.53;5021434;28;45501;-84
2022/05/20 01:02:17;;;;;;;;;1.00;1.00;;;;;23.18;39.90;101561.03;5018421;28;45284;-84
2022/05/20 01:04:44;;;;;;;;;0.00;0.00;;;;;23.75;37.92;101664.25;5013092;28;45679;-84
2022/05/20 01:07:10;;;;;;;;;1.00;0.00;;;;;23.55;37.20;101625.06;5015757;28;48095;-84
2022/05/20 01:09:37;;;;;;;;;1.00;0.00;;;;;23.58;36.78;101603.91;5026553;28;45418;-84
2022/05/20 01:12:03;;;;;;;;;0.00;0.00;;;;;23.63;38.72;101608.97;5036981;28;45872;-83
2022/05/20 01:14:29;;;;;;;;;0.00;0.00;;;;;23.26;38.54;101556.81;5033831;28;45493;-83
2022/05/20 01:16:54;;;;;;;;;0.00;0.00;;;;;23.73;36.80;101631.66;5038822;28;45911;-83
2022/05/20 01:19:49;;;;;;;;;0.00;0.00;;;;;23.78;36.25;101634.88;5037157;28;45811;-83
2022/05/20 01:22:47;;;;;;;;;0.00;0.00;;;;;23.44;36.35;101577.00;5017562;28;45246;-83
2022/05/20 01:25:13;;;;;;;;;0.00;0.00;;;;;23.38;36.55;101551.16;4958136;28;45481;-82
2022/05/20 01:27:42;;;;;;;;;0.00;0.00;;;;;23.52;36.28;101573.63;4941953;28;47344;-83
2022/05/20 01:30:11;;;;;;;;;0.67;0.00;;;;;23.53;36.34;101581.66;4940660;28;45554;-83
2022/05/20 01:32:37;;;;;;;;;0.00;0.00;;;;;23.67;36.04;101604.09;4957967;28;45448;-82
2022/05/20 01:35:09;;;;;;;;;1.33;0.00;;;;;23.62;36.29;101598.19;4949938;28;45603;-82
2022/05/20 01:37:35;;;;;;;;;0.00;0.00;;;;;23.15;36.00;101522.34;4955882;28;45428;-83
2022/05/20 01:40:00;;;;;;;;;1.00;0.00;;;;;23.37;35.59;101551.31;4941190;28;46109;-82
2022/05/20 01:42:55;;;;;;;;;1.67;0.00;;;;;23.55;37.61;101589.69;4957336;28;45494;-84
2022/05/20 01:45:32;;;;;;;;;0.00;0.00;;;;;23.51;36.05;101580.06;4938325;28;45590;-84
2022/05/20 01:48:18;;;;;;;;;0.67;0.00;;;;;23.50;36.28;101592.78;4956444;28;45972;-83
2022/05/20 01:50:52;;;;;;;;;0.00;0.00;;;;;23.23;35.98;101532.59;4941340;28;46019;-83
2022/05/20 01:53:28;;;;;;;;;0.00;0.00;;;;;23.00;36.38;101502.75;4965308;28;45449;-83
2022/05/20 01:56:06;;;;;;;;;0.33;0.33;;;;;23.45;35.89;101572.44;4938299;28;45508;-84
2022/05/20 01:58:41;;;;;;;;;3.00;1.00;;;;;23.26;36.04;101552.22;4938353;28;48391;-83
2022/05/20 02:01:12;;;;;;;;;1.00;1.00;;;;;23.06;36.50;101515.84;4953145;28;45509;-83
2022/05/20 02:03:47;;;;;;;;;0.00;0.00;;;;;23.01;35.87;101507.19;5037365;28;45442;-83
2022/05/20 02:06:26;;;;;;;;;0.00;0.00;;;;;23.35;36.45;101569.63;5010802;28;45355;-83
2022/05/20 02:08:56;;;;;;;;;0.00;0.00;;;;;23.09;36.67;101531.88;5038439;28;46307;-83
2022/05/20 02:11:25;;;;;;;;;0.00;0.00;;;;;23.28;36.25;101557.53;5003725;28;46306;-83
2022/05/20 02:13:59;;;;;;;;;1.00;0.00;;;;;22.99;36.28;101502.88;5038493;28;45405;-82
2022/05/20 02:16:30;;;;;;;;;0.00;0.00;;;;;23.19;36.87;101531.97;5026933;28;45509;-83
2022/05/20 02:19:08;;;;;;;;;0.00;0.00;;;;;23.31;36.58;101552.69;5016394;28;48018;-83
2022/05/20 02:21:39;;;;;;;;;0.00;0.00;;;;;23.03;36.65;101496.19;5038632;28;45532;-82
2022/05/20 02:24:10;;;;;;;;;0.00;0.00;;;;;23.05;36.64;101505.09;5020182;28;45354;-82
2022/05/20 02:26:45;;;;;;;;;0.00;0.00;;;;;23.01;36.97;101500.88;5038786;28;45419;-82
2022/05/20 02:29:16;;;;;;;;;1.00;0.00;;;;;23.29;37.10;101551.94;5036210;28;48175;-82
2022/05/20 02:32:02;;;;;;;;;1.00;1.00;;;;;23.28;37.42;101552.09;5024487;28;45423;-82
2022/05/20 02:34:29;;;;;;;;;0.00;0.00;;;;;22.91;36.83;101489.91;5034611;28;45315;-82
2022/05/20 02:36:55;;;;;;;;;3.00;0.00;;;;;23.13;37.00;101517.03;5025504;28;45422;-82
2022/05/20 02:39:21;;;;;;;;;0.00;0.00;;;;;23.26;37.33;101538.63;5034539;28;45327;-82
2022/05/20 02:41:48;;;;;;;;;0.00;0.00;;;;;23.20;37.58;101524.66;5023032;28;45386;-82
2022/05/20 02:44:14;;;;;;;;;0.33;0.33;;;;;23.06;37.93;101507.69;5027801;28;45505;-84
2022/05/20 02:46:42;;;;;;;;;2.00;1.00;;;;;23.12;37.52;101523.47;5018570;28;45342;-83
2022/05/20 02:49:07;;;;;;;;;0.33;0.33;;;;;23.01;37.62;101500.88;5017979;28;45324;-84
2022/05/20 02:51:33;;;;;;;;;0.00;0.00;;;;;23.22;37.58;101536.28;5023266;28;45741;-83
2022/05/20 02:53:59;;;;;;;;;1.00;1.00;;;;;23.20;37.65;101539.13;5008718;28;45504;-84
2022/05/20 02:56:25;;;;;;;;;0.33;0.33;;;;;23.17;37.67;101534.81;5002646;28;45355;-84
2022/05/20 03:04:19;;;;;;;;;0.00;0.00;;;;;23.03;38.37;101517.94;5020108;28;45254;-84
2022/05/20 03:06:50;;;;;;;;;0.33;0.33;;;;;22.93;38.59;101515.09;5031908;28;45392;-84
2022/05/20 03:09:21;;;;;;;;;0.00;0.00;;;;;23.11;38.65;101531.78;5028235;28;45472;-83
2022/05/20 03:11:47;;;;;;;;;0.00;0.00;;;;;23.10;38.61;101519.16;5030463;28;45470;-83
2022/05/20 03:14:14;;;;;;;;;0.00;0.00;;;;;23.09;38.84;101525.59;5027022;28;45322;-83
2022/05/20 03:16:40;;;;;;;;;2.00;1.00;;;;;23.03;38.57;101520.66;5018195;28;45479;-83
2022/05/20 03:19:07;;;;;;;;;1.00;1.00;;;;;23.00;39.54;101523.66;5033085;28;45457;-83
2022/05/20 03:21:35;;;;;;;;;1.00;1.00;;;;;23.04;38.86;101527.81;5026944;28;45435;-84
2022/05/20 03:24:01;;;;;;;;;1.00;1.00;;;;;23.00;39.30;101521.78;5037742;28;45485;-83
2022/05/20 03:26:27;;;;;;;;;1.00;1.00;;;;;22.97;39.59;101527.47;5026915;28;45453;-83
2022/05/20 03:28:53;;;;;;;;;1.33;1.33;;;;;22.69;40.33;101485.41;5017352;28;45734;-83
2022/05/20 03:31:18;;;;;;;;;4.00;3.00;;;;;22.95;40.26;101533.00;5016997;28;45348;-84
2022/05/20 03:33:44;;;;;;;;;1.33;1.33;;;;;22.79;40.11;101508.09;5017801;28;45438;-83
2022/05/20 03:36:10;;;;;;;;;1.00;1.00;;;;;22.92;40.62;101527.84;5009621;28;45406;-83
2022/05/20 03:38:35;;;;;;;;;2.00;2.00;;;;;22.90;40.23;101524.38;5024697;28;46191;-83
2022/05/20 03:41:02;;;;;;;;;0.67;0.67;;;;;22.90;40.36;101518.09;5036914;28;46116;-84
2022/05/20 03:43:27;;;;;;;;;1.67;1.67;;;;;22.79;40.17;101505.38;5033584;28;45744;-84
2022/05/20 03:45:54;;;;;;;;;1.00;1.00;;;;;22.86;41.12;101514.75;5038294;28;45340;-83
2022/05/20 03:48:20;;;;;;;;;4.00;1.00;;;;;22.82;41.22;101499.69;5037179;28;47016;-83
2022/05/20 03:50:45;;;;;;;;;3.00;2.00;;;;;22.79;41.20;101496.38;5036295;28;45448;-83
2022/05/20 03:53:11;;;;;;;;;1.00;1.00;;;;;22.74;40.90;101481.31;5030025;28;45479;-82
2022/05/20 03:55:36;;;;;;;;;1.00;1.00;;;;;22.83;41.42;101487.84;5027291;28;45547;-82
2022/05/20 03:58:02;;;;;;;;;0.33;0.33;;;;;22.76;41.45;101475.75;5036254;28;46079;-82
2022/05/20 04:00:27;;;;;;;;;0.67;0.67;;;;;22.61;41.20;101456.13;5004559;28;46105;-82
2022/05/20 04:02:53;;;;;;;;;1.00;1.00;;;;;22.78;41.60;101490.06;5031495;28;45469;-82
2022/05/20 04:05:18;;;;;;;;;1.00;1.00;;;;;22.58;41.56;101459.13;5030870;28;45435;-82
2022/05/20 04:07:43;;;;;;;;;1.33;1.00;;;;;22.64;42.49;101474.91;5034928;28;46284;-82
2022/05/20 04:10:09;;;;;;;;;0.67;0.67;;;;;22.41;42.90;101444.22;5035797;28;45323;-82
2022/05/20 04:12:42;;;;;;;;;2.67;1.00;;;;;22.62;42.33;101489.63;5023607;28;45234;-82
2022/05/20 04:15:12;;;;;;;;;0.00;0.00;;;;;22.53;42.49;101461.34;5030657;28;45391;-82
2022/05/20 04:17:37;;;;;;;;;2.67;1.00;;;;;22.48;42.28;101450.00;5028812;28;45508;-82
2022/05/20 04:20:05;;;;;;;;;0.00;0.00;;;;;22.62;42.32;101465.16;5039722;28;45343;-82
2022/05/20 04:22:33;;;;;;;;;1.00;0.00;;;;;22.55;41.99;101467.53;5040482;28;45337;-82
2022/05/20 04:24:59;;;;;;;;;1.00;1.00;;;;;22.69;42.59;101491.69;5040106;28;45316;-82
2022/05/20 04:27:27;;;;;;;;;2.00;0.33;;;;;22.52;41.88;101467.75;5039807;28;45355;-82
2022/05/20 04:29:53;;;;;;;;;2.33;1.33;;;;;22.44;42.53;101462.13;5038984;28;45447;-82
2022/05/20 04:32:18;;;;;;;;;2.00;2.00;;;;;22.60;43.56;101492.47;5039677;28;45348;-82
2022/05/20 04:34:44;;;;;;;;;1.00;0.67;;;;;22.38;43.91;101463.47;5039931;28;45339;-82
2022/05/20 04:37:09;;;;;;;;;2.00;0.33;;;;;22.32;43.92;101459.41;5008259;28;47059;-82
2022/05/20 04:39:34;;;;;;;;;1.00;1.00;;;;;22.45;43.66;101477.41;5035804;28;57384;-82
2022/05/20 04:47:29;;;;;;;;;1.33;1.33;;;;;22.55;44.94;101511.84;5036204;28;45431;-82
2022/05/20 04:49:55;;;;;;;;;0.00;0.00;;;;;22.55;44.26;101511.84;5033017;28;45414;-82
2022/05/20 04:52:21;;;;;;;;;1.67;1.00;;;;;22.60;44.36;101518.78;5031311;28;45487;-82
2022/05/20 04:54:49;;;;;;;;;1.00;1.00;;;;;22.53;45.07;101497.53;5037578;28;46734;-82
2022/05/20 04:57:19;;;;;;;;;2.33;1.00;;;;;22.70;43.81;101512.44;5037961;28;45399;-84
2022/05/20 04:59:45;;;;;;;;;2.00;2.00;;;;;22.63;44.13;101500.34;5029394;28;45567;-82
2022/05/20 05:02:11;;;;;;;;;1.00;1.00;;;;;22.73;44.68;101520.34;5037936;28;45485;-82
2022/05/20 05:04:37;;;;;;;;;3.00;1.67;;;;;22.76;44.42;101525.53;5034673;28;45541;-83
2022/05/20 05:07:02;;;;;;;;;1.00;1.00;;;;;22.75;44.07;101512.06;5035683;28;46191;-84
2022/05/20 05:09:28;;;;;;;;;1.00;1.00;;;;;22.66;44.77;101502.81;5023335;28;45585;-80
2022/05/20 05:11:53;;;;;;;;;2.67;2.00;;;;;22.76;44.26;101509.22;5013193;28;45687;-80
2022/05/20 05:14:19;;;;;;;;;1.00;1.00;;;;;22.80;44.85;101517.97;5031943;28;46842;-81
2022/05/20 05:16:44;;;;;;;;;2.00;2.00;;;;;22.76;44.54;101517.38;5030092;28;45476;-80
2022/05/20 05:19:11;;;;;;;;;2.67;1.00;;;;;22.75;45.57;101520.22;5033358;28;45382;-82
2022/05/20 05:21:37;;;;;;;;;1.33;1.00;;;;;22.72;44.27;101528.63;5029968;28;45355;-80
2022/05/20 05:24:03;;;;;;;;;1.33;1.33;;;;;22.68;45.06;101522.56;5016663;28;45615;-80
2022/05/20 05:26:31;;;;;;;;;3.67;2.33;;;;;22.61;45.05;101510.47;5024419;28;45992;-81
2022/05/20 05:28:57;;;;;;;;;1.33;1.33;;;;;22.48;45.31;101480.75;5027827;28;45645;-81
2022/05/20 05:31:24;;;;;;;;;1.67;1.00;;;;;22.61;44.75;101487.88;5031222;28;45422;-81
2022/05/20 05:33:50;;;;;;;;;2.00;2.00;;;;;22.50;44.74;101473.34;5035603;28;45332;-81
2022/05/20 05:36:17;;;;;;;;;2.33;1.67;;;;;22.38;44.97;101481.63;5031720;28;46205;-79
2022/05/20 05:38:43;;;;;;;;;6.33;3.67;;;;;22.15;46.03;101459.91;5009686;28;46030;-80
2022/05/20 05:41:10;;;;;;;;;6.00;3.00;;;;;22.30;46.97;101476.81;5030228;28;45438;-82
2022/05/20 05:43:37;;;;;;;;;7.67;4.67;;;;;22.29;46.54;101478.69;5011900;28;45580;-81
2022/05/20 05:46:02;;;;;;;;;2.00;2.00;;;;;22.23;46.14;101452.00;5028541;28;45760;-81
2022/05/20 05:48:28;;;;;;;;;2.00;2.00;;;;;22.29;46.30;101450.66;5028019;28;45929;-82
2022/05/20 05:50:55;;;;;;;;;2.33;2.00;;;;;22.29;46.99;101437.94;5030253;28;50700;-81
2022/05/20 05:53:22;;;;;;;;;3.33;2.33;;;;;22.48;47.74;101458.16;5038497;28;45621;-81
2022/05/20 05:55:55;;;;;;;;;4.33;4.33;;;;;22.40;48.46;101433.47;5033506;28;46003;-80
2022/05/20 05:58:20;;;;;;;;;4.67;2.67;;;;;22.37;48.33;101422.88;5035146;28;45312;-80
2022/05/20 06:00:45;;;;;;;;;5.00;3.33;;;;;22.46;50.61;101449.28;5033336;28;45520;-80
2022/05/20 06:03:11;;;;;;;;;2.33;2.33;;;;;22.48;52.06;101444.56;5034062;28;45347;-79
2022/05/20 06:05:37;;;;;;;;;5.67;4.00;;;;;22.56;52.39;101455.66;5030803;28;45492;-79
2022/05/20 06:08:03;;;;;;;;;5.33;3.33;;;;;22.59;55.48;101484.44;5033215;28;45522;-79
2022/05/20 06:10:29;;;;;;;;;3.00;3.00;;;;;22.48;55.44;101485.34;5029742;28;45391;-78
2022/05/20 06:12:55;;;;;;;;;3.00;3.00;;;;;22.37;57.12;101488.06;5031921;28;45422;-80
2022/05/20 06:15:22;;;;;;;;;2.33;2.33;;;;;22.48;57.28;101512.50;5027342;28;46168;-79
2022/05/20 06:17:48;;;;;;;;;4.00;4.00;;;;;22.40;56.75;101507.66;5033776;28;45508;-80
2022/05/20 06:20:14;;;;;;;;;3.00;3.00;;;;;22.36;57.10;101489.91;5029217;28;45569;-79
2022/05/20 06:22:40;;;;;;;;;5.00;3.33;;;;;22.17;57.56;101449.75;5030929;28;45624;-80
2022/05/20 06:25:06;;;;;;;;;6.67;3.33;;;;;22.07;57.47;101419.78;5009965;28;47074;-80
2022/05/20 06:27:32;;;;;;;;;3.00;3.00;;;;;22.13;60.18;101416.56;5032198;28;45445;-79
2022/05/20 06:30:01;;;;;;;;;3.33;3.33;;;;;22.01;59.90;101355.16;5021188;28;45638;-80
2022/05/20 06:32:26;;;;;;;;;3.00;3.00;;;;;21.86;59.22;101308.41;5025388;28;45507;-79
2022/05/20 06:40:25;;;;;;;;;5.33;1.00;;;;;22.12;60.01;101446.56;5024623;28;45565;-79
2022/05/20 06:42:50;;;;;;;;;3.67;3.67;;;;;22.09;60.41;101469.41;5009355;28;45730;-80
2022/05/20 06:45:17;;;;;;;;;6.00;6.00;;;;;22.04;59.75;101443.63;5009247;28;46239;-80
2022/05/20 06:47:43;;;;;;;;;4.33;3.33;;;;;21.68;59.76;101384.03;5025086;28;45466;-79
2022/05/20 06:50:11;;;;;;;;;5.33;3.00;;;;;21.58;59.92;101374.91;5009122;28;45412;-79
2022/05/20 06:52:37;;;;;;;;;4.67;4.67;;;;;21.46;61.60;101336.06;5031267;28;45489;-79
2022/05/20 06:55:04;;;;;;;;;5.67;4.33;;;;;21.42;62.29;101280.38;5027624;28;45467;-80
2022/05/20 06:57:29;;;;;;;;;6.00;3.33;;;;;21.83;62.13;101262.53;5028377;28;45836;-79
2022/05/20 06:59:57;;;;;;;;;5.00;3.33;;;;;21.89;63.95;101129.03;5022087;28;45465;-80
2022/05/20 07:02:22;;;;;;;;;3.00;3.00;;;;;21.73;63.25;101136.75;5028750;28;45536;-81
2022/05/20 07:04:48;;;;;;;;;9.00;6.33;;;;;21.94;61.71;101245.34;5029951;28;45299;-78
2022/05/20 07:07:13;;;;;;;;;5.00;5.00;;;;;21.97;61.00;101233.38;5028678;28;46076;-80
2022/05/20 07:09:39;;;;;;;;;5.00;5.00;;;;;22.00;61.71;101222.25;5030891;28;45458;-80
2022/05/20 07:12:04;;;;;;;;;4.33;3.67;;;;;21.92;61.12;101214.75;5026185;28;45624;-79
2022/05/20 07:14:31;;;;;;;;;3.67;3.67;;;;;22.02;60.65;101226.56;5024855;28;46669;-79
2022/05/20 07:16:56;;;;;;;;;5.67;5.00;;;;;21.92;60.51;101215.63;5028841;28;45517;-79
2022/05/20 07:19:22;;;;;;;;;8.67;6.67;;;;;22.06;60.40;101238.88;5020536;28;45520;-80
2022/05/20 07:21:47;;;;;;;;;5.67;5.00;;;;;22.16;60.20;101236.25;5027666;28;45481;-83
2022/05/20 07:24:13;;;;;;;;;8.00;5.00;;;;;22.19;60.00;101252.28;5030161;28;46045;-81
2022/05/20 07:26:38;;;;;;;;;4.33;4.33;;;;;22.24;59.23;101254.63;5022056;28;45403;-84
2022/05/20 07:29:06;;;;;;;;;7.67;5.67;;;;;22.37;59.40;101271.63;5026906;28;45490;-83
2022/05/20 07:31:31;;;;;;;;;6.33;5.00;;;;;22.33;59.79;101284.56;5027859;28;45843;-81
2022/05/20 07:33:57;;;;;;;;;7.00;6.00;;;;;22.23;58.64;101274.66;5024046;28;45579;-80
2022/05/20 07:36:22;;;;;;;;;5.00;4.33;;;;;22.43;59.27;101322.72;5026982;28;45424;-81
2022/05/20 07:38:48;;;;;;;;;5.00;5.00;;;;;22.40;60.49;101308.53;5003452;28;45545;-80
2022/05/20 07:41:14;;;;;;;;;5.33;5.33;;;;;22.40;59.83;101308.53;5025270;28;45520;-81
2022/05/20 07:43:39;;;;;;;;;7.00;6.67;;;;;22.42;61.16;101333.69;5024889;28;45336;-79
2022/05/20 07:46:06;;;;;;;;;6.33;5.00;;;;;22.34;61.41;101362.38;5024617;28;45457;-80
2022/05/20 07:48:32;;;;;;;;;7.00;6.00;;;;;22.33;61.38;101381.50;5025243;28;45470;-80
2022/05/20 07:51:01;;;;;;;;;6.33;6.33;;;;;22.19;61.84;101388.03;5026662;28;45556;-80
2022/05/20 07:53:35;;;;;;;;;6.33;6.33;;;;;22.23;61.98;101411.28;5025030;28;46225;-81
2022/05/20 07:56:06;;;;;;;;;8.00;6.33;;;;;22.07;61.63;101408.91;5013655;28;45430;-82
2022/05/20 07:58:38;;;;;;;;;7.00;7.00;;;;;22.12;60.98;101422.13;5029197;28;45461;-83
2022/05/20 08:01:04;;;;;;;;;8.00;7.00;;;;;21.78;62.42;101310.91;5027582;28;45526;-84
2022/05/20 08:06:18;;;;;;;;;12.67;12.33;;;;;21.13;65.34;101300.78;5024935;28;46457;-84
2022/05/20 08:08:43;;;;;;;;;14.00;11.00;;;;;20.91;65.89;101239.25;5002142;28;45593;-84
2022/05/20 08:11:09;;;;;;;;;12.33;10.33;;;;;21.68;65.52;101334.31;5004169;28;46111;-85
2022/05/20 08:13:37;;;;;;;;;14.33;11.67;;;;;21.38;65.24;101275.28;5008419;28;46807;-85
2022/05/20 08:16:06;;;;;;;;;8.33;6.00;;;;;21.59;65.46;101289.84;5021111;28;45724;-84
2022/05/20 08:18:40;;;;;;;;;9.67;9.67;;;;;21.85;64.94;101331.09;5003076;28;45541;-86
2022/05/20 08:21:06;;;;;;;;;9.33;9.00;;;;;21.88;64.16;101332.72;5006545;28;45397;-83
2022/05/20 08:23:32;;;;;;;;;9.33;8.33;;;;;21.47;65.35;101272.72;5031254;28;45704;-84
2022/05/20 08:25:57;;;;;;;;;9.00;9.00;;;;;21.61;64.13;101273.41;5022753;28;45521;-84
2022/05/20 08:28:23;;;;;;;;;11.00;9.00;;;;;21.88;65.31;101284.72;5023722;28;45403;-84
2022/05/20 08:30:48;;;;;;;;;9.00;8.00;;;;;21.69;65.84;101260.09;5025483;28;45504;-84
2022/05/20 08:33:14;;;;;;;;;12.00;9.00;;;;;22.03;65.02;101333.28;5005587;28;46091;-84
2022/05/20 08:35:39;;;;;;;;;9.00;9.00;;;;;21.80;65.12;101287.22;5031308;28;45606;-85
2022/05/20 08:38:04;;;;;;;;;7.33;7.33;;;;;21.90;64.87;101347.03;5024612;28;45458;-85
2022/05/20 08:40:50;;;;;;;;;10.33;10.33;;;;;22.02;66.31;101467.31;5005807;28;45475;-84
2022/05/20 08:43:17;;;;;;;;;13.67;9.67;;;;;21.97;65.96;101492.09;5024449;28;46162;-83
2022/05/20 08:45:43;;;;;;;;;10.33;8.67;;;;;21.84;65.77;101499.50;5013487;28;45991;-84
2022/05/20 08:48:10;;;;;;;;;10.33;9.67;;;;;21.90;65.40;101486.31;5017299;28;45490;-84
2022/05/20 08:50:43;;;;;;;;;12.00;7.67;;;;;21.87;67.44;101413.28;5022985;28;45678;-85
2022/05/20 08:53:16;;;;;;;;;13.67;12.00;;;;;21.67;67.24;101471.84;5028144;28;45250;-86
2022/05/20 08:55:42;;;;;;;;;17.33;14.00;;;;;21.08;69.32;101296.56;5011667;28;45997;-80
2022/05/20 08:58:11;;;;;;;;;12.67;10.33;;;;;21.38;70.22;101367.47;5026734;28;45809;-79
2022/05/20 09:00:37;;;;;;;;;12.00;10.67;;;;;21.29;69.97;101367.22;5021253;28;45500;-80
2022/05/20 09:03:06;;;;;;;;;12.00;10.00;;;;;21.37;69.91;101376.59;5023321;28;45477;-80
2022/05/20 09:05:36;;;;;;;;;12.67;11.67;;;;;21.19;70.88;101335.50;5032310;28;45435;-80
2022/05/20 09:08:28;;;;;;;;;13.33;10.33;;;;;21.28;69.90;101376.34;5024359;28;45455;-80
2022/05/20 09:10:56;;;;;;;;;11.67;10.33;;;;;21.26;70.73;101378.31;5008517;28;45477;-80
2022/05/20 09:15:43;;;;;;;;;13.00;12.00;;;;;21.27;71.37;101380.03;5020921;28;46172;-82
2022/05/20 09:16:17;;;;;;;;;12.67;11.67;;;;;21.10;70.99;101366.09;5027599;28;45530;-82
2022/05/20 09:18:48;;;;;;;;;15.33;13.33;;;;;20.91;71.84;101353.97;5031639;28;45501;-82
2022/05/20 09:21:58;;;;;;;;;13.67;12.67;;;;;21.07;71.63;101383.41;5023876;28;45466;-82
2022/05/20 09:24:25;;;;;;;;;16.00;12.33;;;;;20.87;72.56;101333.50;4950543;28;46528;-83
2022/05/20 09:27:01;;;;;;;;;17.33;12.33;;;;;20.91;72.79;101320.56;4955163;28;45463;-83
2022/05/20 09:29:36;;;;;;;;;9.00;9.00;;;;;20.95;72.51;101333.75;4941950;28;45478;-83
2022/05/20 09:32:03;;;;;;;;;10.33;8.67;;;;;20.65;72.77;101335.16;4944699;28;45600;-81
2022/05/20 09:34:39;;;;;;;;;9.67;9.67;;;;;20.78;72.69;101450.72;4945491;28;45869;-81
2022/05/20 09:37:14;;;;;;;;;12.00;10.33;;;;;20.65;74.22;101534.75;4943034;28;45479;-80
2022/05/20 09:39:42;;;;;;;;;11.33;11.33;;;;;20.38;73.72;101500.56;4941417;28;45448;-80
2022/05/20 09:42:25;;;;;;;;;30.33;23.00;;;;;20.48;76.55;101368.03;4946247;28;45600;-80
2022/05/20 09:44:52;;;;;;;;;19.67;15.33;;;;;20.07;98.69;101325.16;4942392;28;45588;-81
2022/05/20 09:47:38;;;;;;;;;13.00;11.00;;;;;19.72;100.00;101364.63;4941464;28;45456;-82
2022/05/20 09:50:34;;;;;;;;;15.33;13.67;;;;;19.86;100.00;101284.31;4943519;28;45422;-82
2022/05/20 09:53:32;;;;;;;;;15.00;15.00;;;;;20.22;100.00;101250.91;4947058;28;45428;-82
2022/05/20 09:56:26;;;;;;;;;13.67;12.67;;;;;20.48;100.00;101229.06;4943540;28;45923;-80
2022/05/20 09:59:20;;;;;;;;;12.00;12.00;;;;;20.73;100.00;101226.19;4950557;28;45551;-82
2022/05/20 10:01:56;;;;;;;;;14.67;14.67;;;;;21.25;100.00;101208.47;4946735;28;45456;-82
2022/05/20 10:04:38;;;;;;;;;16.33;14.33;;;;;21.22;100.00;101180.75;4940901;28;45537;-81
2022/05/20 10:07:06;;;;;;;;;15.33;10.00;;;;;21.24;100.00;101185.06;4943674;28;45599;-82
2022/05/20 10:09:44;;;;;;;;;15.00;15.00;;;;;21.76;100.00;101217.03;4951244;28;45473;-81
2022/05/20 10:12:21;;;;;;;;;13.67;13.67;;;;;22.09;100.00;101221.47;4941758;28;45568;-80
2022/05/20 10:14:58;;;;;;;;;15.33;15.33;;;;;21.87;98.63;101227.88;4948716;28;45590;-84
2022/05/20 10:18:14;;;;;;;;;13.67;13.33;;;;;21.64;95.68;101293.03;4949618;28;45497;-85
2022/05/20 10:20:44;;;;;;;;;15.33;14.00;;;;;21.55;95.43;101325.47;4915514;28;45898;-82
2022/05/20 10:23:22;;;;;;;;;16.67;16.00;;;;;21.33;94.36;101335.31;4916767;28;45444;-81
2022/05/20 10:26:13;;;;;;;;;18.33;15.33;;;;;21.41;94.25;101338.28;4916443;28;45669;-82
2022/05/20 10:34:31;;;;;;;;;15.00;15.00;;;;;22.49;86.44;101239.81;4890232;29;45566;-81
2022/05/20 10:37:05;;;;;;;;;13.33;11.33;;;;;22.70;87.93;101280.56;4885358;29;46492;-81
2022/05/20 10:39:53;;;;;;;;;20.67;14.00;;;;;22.58;87.01;101282.50;4929526;28;45546;-81
2022/05/20 10:42:40;;;;;;;;;13.33;13.33;;;;;22.52;85.62;101269.44;4924638;28;45521;-80
2022/05/20 10:51:20;;;;;;;;;18.00;14.00;;;;;24.50;78.20;101248.09;4938301;28;45505;-83
2022/05/20 10:53:54;;;;;;;;;17.33;15.67;;;;;26.04;71.53;101207.47;4934807;28;45753;-83
2022/05/20 10:56:39;;;;;;;;;19.67;18.33;;;;;26.88;67.29;101252.59;4929078;28;45612;-80
2022/05/20 10:59:32;;;;;;;;;12.67;8.67;;;;;26.99;68.00;101254.16;4953715;28;45637;-80
2022/05/20 11:02:19;;;;;;;;;16.33;16.33;;;;;26.88;67.66;101243.53;4951185;28;46346;-79
2022/05/20 11:05:23;;;;;;;;;13.00;12.67;;;;;26.88;67.06;101263.53;4958623;28;45459;-78
2022/05/20 11:08:03;;;;;;;;;14.67;12.67;;;;;26.62;68.00;101279.91;4966001;28;45550;-78
2022/05/20 11:10:43;;;;;;;;;28.00;26.00;;;;;26.25;68.68;101291.00;4954003;28;45647;-79
2022/05/20 11:13:15;;;;;;;;;16.67;13.00;;;;;25.95;69.72;101309.47;4957059;28;46038;-79
2022/05/20 11:15:42;;;;;;;;;16.00;15.33;;;;;25.81;70.01;101318.16;4957902;28;45782;-78
2022/05/20 11:18:23;;;;;;;;;14.33;14.33;;;;;25.69;69.69;101320.25;4958636;28;45436;-79
2022/05/20 11:21:19;;;;;;;;;15.00;14.33;;;;;25.41;70.87;101316.63;4958975;28;46408;-79
2022/05/20 11:24:01;;;;;;;;;14.33;13.33;;;;;25.43;70.01;101326.38;4949812;28;46443;-79
2022/05/20 11:27:01;;;;;;;;;12.67;11.67;;;;;25.39;71.54;101322.22;4952874;28;45561;-78
2022/05/20 11:29:53;;;;;;;;;17.33;16.67;;;;;25.41;71.71;101309.31;4951408;28;45580;-80
2022/05/20 11:32:37;;;;;;;;;17.33;14.00;;;;;25.46;70.83;101306.13;4953283;28;45547;-79
2022/05/20 11:35:36;;;;;;;;;10.33;10.33;;;;;25.46;71.12;101290.59;4950581;28;45670;-79
2022/05/20 11:38:27;;;;;;;;;15.67;14.00;;;;;25.63;71.88;101309.91;4965900;28;45400;-79
2022/05/20 11:41:07;;;;;;;;;13.00;12.00;;;;;25.59;72.26;101298.44;5030894;28;45414;-79
2022/05/20 11:43:36;;;;;;;;;10.67;10.67;;;;;25.86;70.53;101316.72;5025354;28;45549;-79
2022/05/20 11:46:26;;;;;;;;;11.67;11.67;;;;;25.88;69.54;101317.41;5007207;28;46865;-79
2022/05/20 11:49:16;;;;;;;;;9.00;9.00;;;;;25.86;70.09;101321.28;5020264;28;45319;-79
2022/05/20 11:52:00;;;;;;;;;13.00;13.00;;;;;25.85;68.80;101317.72;5026188;28;45722;-79
2022/05/20 11:54:32;;;;;;;;;11.00;11.00;;;;;25.81;68.51;101293.59;5030643;28;45348;-79
2022/05/20 11:57:03;;;;;;;;;11.33;10.00;;;;;25.86;69.13;101270.28;5021284;28;48218;-79
2022/05/20 11:59:34;;;;;;;;;12.67;10.67;;;;;26.11;68.29;101270.56;5021652;28;45515;-79
2022/05/20 12:02:05;;;;;;;;;10.33;10.33;;;;;26.06;68.13;101243.69;5022723;28;45381;-80
2022/05/20 12:04:34;;;;;;;;;11.00;11.00;;;;;26.16;67.23;101262.72;5026809;28;45433;-80
2022/05/20 12:07:23;;;;;;;;;9.00;9.00;;;;;26.23;67.91;101273.91;5031549;28;46404;-80
2022/05/20 12:09:54;;;;;;;;;10.67;9.33;;;;;26.38;66.65;101279.66;5026454;28;45506;-80
2022/05/20 12:12:20;;;;;;;;;10.00;8.67;;;;;26.41;65.96;101282.06;5021111;28;45352;-80